sensor_id;sensor_type;location;lat;lon;timestamp;temperature;humidity
12957;DHT22;6543;48.836;10.092;2022-08-18T00:02:06;17.90;99.90
12957;DHT22;6543;48.836;10.092;2022-08-18T00:04:34;17.80;99.90
12957;DHT22;6543;48.836;10.092;2022-08-18T00:07:04;17.90;99.90
12957;DHT22;6543;48.836;10.092;2022-08-18T00:09:32;17.80;99.90
12957;DHT22;6543;48.836;10.092;2022-08-18T00:12:04;17.80;99.90
12957;DHT22;6543;48.836;10.092;2022-08-18T00:14:31;17.80;99.90
12957;DHT22;6543;48.836;10.092;2022-08-18T00:16:59;17.70;99.90
12957;DHT22;6543;48.836;10.092;2022-08-18T00:19:26;17.70;99.90
12957;DHT22;6543;48.836;10.092;2022-08-18T00:21:53;17.60;99.90
12957;DHT22;6543;48.836;10.092;2022-08-18T00:24:20;17.60;99.90
12957;DHT22;6543;48.836;10.092;2022-08-18T00:26:47;17.60;99.90
12957;DHT22;6543;48.836;10.092;2022-08-18T00:29:15;17.60;99.90
12957;DHT22;6543;48.836;10.092;2022-08-18T00:31:42;17.60;99.90
12957;DHT22;6543;48.836;10.092;2022-08-18T00:34:09;17.50;99.90
12957;DHT22;6543;48.836;10.092;2022-08-18T00:36:36;17.50;99.90
12957;DHT22;6543;48.836;10.092;2022-08-18T00:39:03;17.50;99.90
12957;DHT22;6543;48.836;10.092;2022-08-18T00:41:30;17.50;99.90
12957;DHT22;6543;48.836;10.092;2022-08-18T00:43:57;17.50;99.90
12957;DHT22;6543;48.836;10.092;2022-08-18T00:46:28;17.50;99.90
12957;DHT22;6543;48.836;10.092;2022-08-18T00:48:55;17.50;99.90
12957;DHT22;6543;48.836;10.092;2022-08-18T00:51:26;17.50;99.90
12957;DHT22;6543;48.836;10.092;2022-08-18T00:53:59;17.50;99.90
12957;DHT22;6543;48.836;10.092;2022-08-18T00:56:30;17.50;99.90
12957;DHT22;6543;48.836;10.092;2022-08-18T00:59:03;17.50;99.90
12957;DHT22;6543;48.836;10.092;2022-08-18T01:01:34;17.50;99.90
12957;DHT22;6543;48.836;10.092;2022-08-18T01:04:05;17.50;99.90
12957;DHT22;6543;48.836;10.092;2022-08-18T01:06:38;17.50;99.90
12957;DHT22;6543;48.836;10.092;2022-08-18T01:09:05;17.50;99.90
12957;DHT22;6543;48.836;10.092;2022-08-18T01:11:33;17.50;99.90
12957;DHT22;6543;48.836;10.092;2022-08-18T01:14:01;17.50;99.90
12957;DHT22;6543;48.836;10.092;2022-08-18T01:16:28;17.50;99.90
12957;DHT22;6543;48.836;10.092;2022-08-18T01:19:15;17.60;99.90
12957;DHT22;6543;48.836;10.092;2022-08-18T01:22:05;17.50;99.90
12957;DHT22;6543;48.836;10.092;2022-08-18T01:24:36;17.70;99.90
12957;DHT22;6543;48.836;10.092;2022-08-18T01:27:21;17.70;99.90
12957;DHT22;6543;48.836;10.092;2022-08-18T01:29:49;17.70;99.90
12957;DHT22;6543;48.836;10.092;2022-08-18T01:32:18;17.70;99.90
12957;DHT22;6543;48.836;10.092;2022-08-18T01:34:50;17.70;99.90
12957;DHT22;6543;48.836;10.092;2022-08-18T01:37:19;17.60;99.90
12957;DHT22;6543;48.836;10.092;2022-08-18T01:39:48;17.50;99.90
12957;DHT22;6543;48.836;10.092;2022-08-18T01:42:16;17.50;99.90
12957;DHT22;6543;48.836;10.092;2022-08-18T01:44:44;17.50;99.90
12957;DHT22;6543;48.836;10.092;2022-08-18T01:47:13;17.50;99.90
12957;DHT22;6543;48.836;10.092;2022-08-18T01:49:40;17.60;99.90
12957;DHT22;6543;48.836;10.092;2022-08-18T01:52:08;17.50;99.90
12957;DHT22;6543;48.836;10.092;2022-08-18T01:54:35;17.60;99.90
12957;DHT22;6543;48.836;10.092;2022-08-18T01:57:03;17.60;99.90
12957;DHT22;6543;48.836;10.092;2022-08-18T01:59:30;17.60;99.90
12957;DHT22;6543;48.836;10.092;2022-08-18T02:01:57;17.50;99.90
12957;DHT22;6543;48.836;10.092;2022-08-18T02:04:27;17.50;99.90
12957;DHT22;6543;48.836;10.092;2022-08-18T02:06:57;17.60;99.90
12957;DHT22;6543;48.836;10.092;2022-08-18T02:09:25;17.50;99.90
12957;DHT22;6543;48.836;10.092;2022-08-18T02:11:52;17.50;99.90
12957;DHT22;6543;48.836;10.092;2022-08-18T02:14:21;17.50;99.90
12957;DHT22;6543;48.836;10.092;2022-08-18T02:16:48;17.50;99.90
12957;DHT22;6543;48.836;10.092;2022-08-18T02:19:14;17.50;99.90
12957;DHT22;6543;48.836;10.092;2022-08-18T02:21:41;17.50;99.90
12957;DHT22;6543;48.836;10.092;2022-08-18T02:24:08;17.50;99.90
12957;DHT22;6543;48.836;10.092;2022-08-18T02:26:35;17.40;99.90
12957;DHT22;6543;48.836;10.092;2022-08-18T02:29:02;17.40;99.90
12957;DHT22;6543;48.836;10.092;2022-08-18T02:31:30;17.40;99.90
12957;DHT22;6543;48.836;10.092;2022-08-18T02:33:57;17.30;99.90
12957;DHT22;6543;48.836;10.092;2022-08-18T02:36:24;17.40;99.90
12957;DHT22;6543;48.836;10.092;2022-08-18T02:38:51;17.30;99.90
12957;DHT22;6543;48.836;10.092;2022-08-18T02:41:18;17.40;99.90
12957;DHT22;6543;48.836;10.092;2022-08-18T02:43:45;17.30;99.90
12957;DHT22;6543;48.836;10.092;2022-08-18T02:46:13;17.40;99.90
12957;DHT22;6543;48.836;10.092;2022-08-18T02:48:41;17.40;99.90
12957;DHT22;6543;48.836;10.092;2022-08-18T02:51:12;17.40;99.90
12957;DHT22;6543;48.836;10.092;2022-08-18T02:53:40;17.40;99.90
12957;DHT22;6543;48.836;10.092;2022-08-18T02:56:08;17.40;99.90
12957;DHT22;6543;48.836;10.092;2022-08-18T02:58:47;17.40;99.90
12957;DHT22;6543;48.836;10.092;2022-08-18T03:01:14;17.40;99.90
12957;DHT22;6543;48.836;10.092;2022-08-18T03:03:42;17.40;99.90
12957;DHT22;6543;48.836;10.092;2022-08-18T03:06:09;17.40;99.90
12957;DHT22;6543;48.836;10.092;2022-08-18T03:08:36;17.40;99.90
12957;DHT22;6543;48.836;10.092;2022-08-18T03:11:03;17.30;99.90
12957;DHT22;6543;48.836;10.092;2022-08-18T03:13:30;17.30;99.90
12957;DHT22;6543;48.836;10.092;2022-08-18T03:15:57;17.30;99.90
12957;DHT22;6543;48.836;10.092;2022-08-18T03:18:24;17.30;99.90
12957;DHT22;6543;48.836;10.092;2022-08-18T03:20:52;17.30;99.90
12957;DHT22;6543;48.836;10.092;2022-08-18T03:23:19;17.30;99.90
12957;DHT22;6543;48.836;10.092;2022-08-18T03:25:48;17.30;99.90
12957;DHT22;6543;48.836;10.092;2022-08-18T03:28:16;17.40;99.90
12957;DHT22;6543;48.836;10.092;2022-08-18T03:30:43;17.40;99.90
12957;DHT22;6543;48.836;10.092;2022-08-18T03:33:10;17.40;99.90
12957;DHT22;6543;48.836;10.092;2022-08-18T03:35:37;17.40;99.90
12957;DHT22;6543;48.836;10.092;2022-08-18T03:38:07;17.30;99.90
12957;DHT22;6543;48.836;10.092;2022-08-18T03:40:34;17.30;99.90
12957;DHT22;6543;48.836;10.092;2022-08-18T03:43:03;17.20;99.90
12957;DHT22;6543;48.836;10.092;2022-08-18T03:45:32;17.20;99.90
12957;DHT22;6543;48.836;10.092;2022-08-18T03:47:59;17.10;99.90
12957;DHT22;6543;48.836;10.092;2022-08-18T03:50:27;17.10;99.90
12957;DHT22;6543;48.836;10.092;2022-08-18T03:52:54;17.20;99.90
12957;DHT22;6543;48.836;10.092;2022-08-18T03:55:25;17.10;99.90
12957;DHT22;6543;48.836;10.092;2022-08-18T03:57:57;17.10;99.90
12957;DHT22;6543;48.836;10.092;2022-08-18T04:00:26;17.10;99.90
12957;DHT22;6543;48.836;10.092;2022-08-18T04:02:53;17.20;99.90
12957;DHT22;6543;48.836;10.092;2022-08-18T04:05:20;17.10;99.90
12957;DHT22;6543;48.836;10.092;2022-08-18T04:07:47;17.20;99.90
12957;DHT22;6543;48.836;10.092;2022-08-18T04:10:14;17.20;99.90
12957;DHT22;6543;48.836;10.092;2022-08-18T04:12:42;17.20;99.90
12957;DHT22;6543;48.836;10.092;2022-08-18T04:15:10;17.20;99.90
12957;DHT22;6543;48.836;10.092;2022-08-18T04:17:37;17.20;99.90
12957;DHT22;6543;48.836;10.092;2022-08-18T04:20:04;17.20;99.90
12957;DHT22;6543;48.836;10.092;2022-08-18T04:22:32;17.20;99.90
12957;DHT22;6543;48.836;10.092;2022-08-18T04:24:59;17.20;99.90
12957;DHT22;6543;48.836;10.092;2022-08-18T04:27:27;17.20;99.90
12957;DHT22;6543;48.836;10.092;2022-08-18T04:29:56;17.30;99.90
12957;DHT22;6543;48.836;10.092;2022-08-18T04:32:23;17.30;99.90
12957;DHT22;6543;48.836;10.092;2022-08-18T04:34:50;17.40;99.90
12957;DHT22;6543;48.836;10.092;2022-08-18T04:37:17;17.40;99.90
12957;DHT22;6543;48.836;10.092;2022-08-18T04:39:45;17.50;99.90
12957;DHT22;6543;48.836;10.092;2022-08-18T04:42:12;17.40;99.90
12957;DHT22;6543;48.836;10.092;2022-08-18T04:44:39;17.40;99.90
12957;DHT22;6543;48.836;10.092;2022-08-18T04:47:08;17.40;99.90
12957;DHT22;6543;48.836;10.092;2022-08-18T04:49:36;17.40;99.90
12957;DHT22;6543;48.836;10.092;2022-08-18T04:52:04;17.50;99.90
12957;DHT22;6543;48.836;10.092;2022-08-18T04:54:49;17.50;99.90
12957;DHT22;6543;48.836;10.092;2022-08-18T04:57:18;17.10;99.90
12957;DHT22;6543;48.836;10.092;2022-08-18T04:59:47;17.60;99.90
12957;DHT22;6543;48.836;10.092;2022-08-18T05:02:17;17.50;99.90
12957;DHT22;6543;48.836;10.092;2022-08-18T05:04:45;17.50;99.90
12957;DHT22;6543;48.836;10.092;2022-08-18T05:07:14;17.60;99.90
12957;DHT22;6543;48.836;10.092;2022-08-18T05:09:42;17.70;99.90
12957;DHT22;6543;48.836;10.092;2022-08-18T05:12:10;17.70;99.90
12957;DHT22;6543;48.836;10.092;2022-08-18T05:14:38;17.80;99.90
12957;DHT22;6543;48.836;10.092;2022-08-18T05:17:05;17.70;99.90
12957;DHT22;6543;48.836;10.092;2022-08-18T05:19:34;17.70;99.90
12957;DHT22;6543;48.836;10.092;2022-08-18T05:22:01;17.70;99.90
12957;DHT22;6543;48.836;10.092;2022-08-18T05:24:29;17.70;99.90
12957;DHT22;6543;48.836;10.092;2022-08-18T05:26:57;17.70;99.90
12957;DHT22;6543;48.836;10.092;2022-08-18T05:29:24;17.70;99.90
12957;DHT22;6543;48.836;10.092;2022-08-18T05:31:52;17.70;99.90
12957;DHT22;6543;48.836;10.092;2022-08-18T05:34:20;17.70;99.90
12957;DHT22;6543;48.836;10.092;2022-08-18T05:37:06;17.70;99.90
12957;DHT22;6543;48.836;10.092;2022-08-18T05:39:39;17.80;99.90
12957;DHT22;6543;48.836;10.092;2022-08-18T05:42:13;17.90;99.90
12957;DHT22;6543;48.836;10.092;2022-08-18T05:44:48;18.00;99.90
12957;DHT22;6543;48.836;10.092;2022-08-18T05:47:20;18.00;99.90
12957;DHT22;6543;48.836;10.092;2022-08-18T05:49:48;18.00;99.90
12957;DHT22;6543;48.836;10.092;2022-08-18T05:52:19;18.10;99.90
12957;DHT22;6543;48.836;10.092;2022-08-18T05:54:50;18.10;99.90
12957;DHT22;6543;48.836;10.092;2022-08-18T05:57:41;18.00;99.90
12957;DHT22;6543;48.836;10.092;2022-08-18T06:00:10;18.00;99.90
12957;DHT22;6543;48.836;10.092;2022-08-18T06:02:41;18.10;99.90
12957;DHT22;6543;48.836;10.092;2022-08-18T06:05:15;18.00;99.90
12957;DHT22;6543;48.836;10.092;2022-08-18T06:07:52;18.20;99.90
12957;DHT22;6543;48.836;10.092;2022-08-18T06:10:20;18.20;99.90
12957;DHT22;6543;48.836;10.092;2022-08-18T06:12:48;18.20;99.90
12957;DHT22;6543;48.836;10.092;2022-08-18T06:15:22;18.20;99.90
12957;DHT22;6543;48.836;10.092;2022-08-18T06:18:09;18.30;99.90
12957;DHT22;6543;48.836;10.092;2022-08-18T06:20:51;18.40;99.90
12957;DHT22;6543;48.836;10.092;2022-08-18T06:23:30;18.30;99.90
12957;DHT22;6543;48.836;10.092;2022-08-18T06:26:08;18.50;99.90
12957;DHT22;6543;48.836;10.092;2022-08-18T06:28:51;18.60;99.90
12957;DHT22;6543;48.836;10.092;2022-08-18T06:31:27;18.70;99.90
12957;DHT22;6543;48.836;10.092;2022-08-18T06:34:04;18.60;99.90
12957;DHT22;6543;48.836;10.092;2022-08-18T06:36:39;18.60;99.90
12957;DHT22;6543;48.836;10.092;2022-08-18T06:39:21;18.80;99.90
12957;DHT22;6543;48.836;10.092;2022-08-18T06:41:51;18.80;99.90
12957;DHT22;6543;48.836;10.092;2022-08-18T06:44:22;18.80;99.90
12957;DHT22;6543;48.836;10.092;2022-08-18T06:46:55;18.90;99.90
12957;DHT22;6543;48.836;10.092;2022-08-18T06:49:37;18.90;99.90
12957;DHT22;6543;48.836;10.092;2022-08-18T06:52:23;19.10;99.90
12957;DHT22;6543;48.836;10.092;2022-08-18T06:54:54;19.00;99.90
12957;DHT22;6543;48.836;10.092;2022-08-18T06:57:25;19.00;99.90
12957;DHT22;6543;48.836;10.092;2022-08-18T07:00:01;19.10;99.90
12957;DHT22;6543;48.836;10.092;2022-08-18T07:02:46;19.00;99.90
12957;DHT22;6543;48.836;10.092;2022-08-18T07:05:22;19.10;99.90
12957;DHT22;6543;48.836;10.092;2022-08-18T07:08:05;18.90;99.90
12957;DHT22;6543;48.836;10.092;2022-08-18T07:10:38;19.00;99.90
12957;DHT22;6543;48.836;10.092;2022-08-18T07:13:14;19.10;99.90
12957;DHT22;6543;48.836;10.092;2022-08-18T07:15:41;19.20;99.90
12957;DHT22;6543;48.836;10.092;2022-08-18T07:18:11;19.30;99.90
12957;DHT22;6543;48.836;10.092;2022-08-18T07:20:43;19.30;99.90
12957;DHT22;6543;48.836;10.092;2022-08-18T07:23:21;19.50;99.90
12957;DHT22;6543;48.836;10.092;2022-08-18T07:25:59;19.60;99.90
12957;DHT22;6543;48.836;10.092;2022-08-18T07:28:28;19.70;99.90
12957;DHT22;6543;48.836;10.092;2022-08-18T07:31:08;19.80;99.90
12957;DHT22;6543;48.836;10.092;2022-08-18T07:33:39;20.10;99.90
12957;DHT22;6543;48.836;10.092;2022-08-18T07:36:07;20.20;99.90
12957;DHT22;6543;48.836;10.092;2022-08-18T07:38:38;20.20;99.90
12957;DHT22;6543;48.836;10.092;2022-08-18T07:41:14;20.00;99.90
12957;DHT22;6543;48.836;10.092;2022-08-18T07:43:49;19.90;99.90
12957;DHT22;6543;48.836;10.092;2022-08-18T07:46:25;19.80;99.90
12957;DHT22;6543;48.836;10.092;2022-08-18T07:48:55;19.90;99.90
12957;DHT22;6543;48.836;10.092;2022-08-18T07:51:26;19.90;99.90
12957;DHT22;6543;48.836;10.092;2022-08-18T07:53:59;20.00;99.90
12957;DHT22;6543;48.836;10.092;2022-08-18T07:56:34;20.00;99.90
12957;DHT22;6543;48.836;10.092;2022-08-18T07:59:11;20.20;99.90
12957;DHT22;6543;48.836;10.092;2022-08-18T08:01:45;20.60;99.90
12957;DHT22;6543;48.836;10.092;2022-08-18T08:04:17;20.80;99.90
12957;DHT22;6543;48.836;10.092;2022-08-18T08:07:01;20.70;99.90
12957;DHT22;6543;48.836;10.092;2022-08-18T08:09:35;20.60;99.90
12957;DHT22;6543;48.836;10.092;2022-08-18T08:12:15;20.60;99.90
12957;DHT22;6543;48.836;10.092;2022-08-18T08:14:45;21.10;99.90
12957;DHT22;6543;48.836;10.092;2022-08-18T08:17:20;21.10;99.90
12957;DHT22;6543;48.836;10.092;2022-08-18T08:20:07;21.10;99.90
12957;DHT22;6543;48.836;10.092;2022-08-18T08:22:41;21.40;99.90
12957;DHT22;6543;48.836;10.092;2022-08-18T08:25:17;21.50;99.90
12957;DHT22;6543;48.836;10.092;2022-08-18T08:28:07;21.70;99.90
12957;DHT22;6543;48.836;10.092;2022-08-18T08:30:45;21.20;99.90
12957;DHT22;6543;48.836;10.092;2022-08-18T08:33:25;21.30;99.90
12957;DHT22;6543;48.836;10.092;2022-08-18T08:36:05;21.20;99.90
12957;DHT22;6543;48.836;10.092;2022-08-18T08:38:41;21.40;99.90
12957;DHT22;6543;48.836;10.092;2022-08-18T08:41:12;21.30;99.90
12957;DHT22;6543;48.836;10.092;2022-08-18T08:43:50;21.50;99.90
12957;DHT22;6543;48.836;10.092;2022-08-18T08:46:21;21.40;99.90
12957;DHT22;6543;48.836;10.092;2022-08-18T08:48:53;21.30;99.90
12957;DHT22;6543;48.836;10.092;2022-08-18T08:51:32;21.30;99.90
12957;DHT22;6543;48.836;10.092;2022-08-18T08:54:04;21.50;99.90
12957;DHT22;6543;48.836;10.092;2022-08-18T08:56:35;21.50;99.90
12957;DHT22;6543;48.836;10.092;2022-08-18T08:59:09;21.30;99.90
12957;DHT22;6543;48.836;10.092;2022-08-18T09:01:40;21.30;99.90
12957;DHT22;6543;48.836;10.092;2022-08-18T09:04:20;21.10;99.90
12957;DHT22;6543;48.836;10.092;2022-08-18T09:06:59;21.00;99.90
12957;DHT22;6543;48.836;10.092;2022-08-18T09:09:47;20.80;99.90
12957;DHT22;6543;48.836;10.092;2022-08-18T09:12:26;20.70;99.90
12957;DHT22;6543;48.836;10.092;2022-08-18T09:20:55;21.20;99.90
12957;DHT22;6543;48.836;10.092;2022-08-18T09:23:29;20.80;99.90
12957;DHT22;6543;48.836;10.092;2022-08-18T09:25:58;20.80;99.90
12957;DHT22;6543;48.836;10.092;2022-08-18T09:28:54;21.40;99.90
12957;DHT22;6543;48.836;10.092;2022-08-18T09:31:27;21.90;99.90
12957;DHT22;6543;48.836;10.092;2022-08-18T09:37:04;21.80;99.90
12957;DHT22;6543;48.836;10.092;2022-08-18T09:39:38;21.40;99.90
12957;DHT22;6543;48.836;10.092;2022-08-18T09:42:32;21.10;99.90
12957;DHT22;6543;48.836;10.092;2022-08-18T09:45:39;21.20;99.90
12957;DHT22;6543;48.836;10.092;2022-08-18T09:48:24;21.40;99.90
12957;DHT22;6543;48.836;10.092;2022-08-18T09:51:15;21.40;99.90
12957;DHT22;6543;48.836;10.092;2022-08-18T09:54:05;21.60;99.90
12957;DHT22;6543;48.836;10.092;2022-08-18T09:57:05;22.20;99.90
12957;DHT22;6543;48.836;10.092;2022-08-18T09:59:55;22.00;99.90
12957;DHT22;6543;48.836;10.092;2022-08-18T10:05:40;22.20;99.90
12957;DHT22;6543;48.836;10.092;2022-08-18T10:08:34;22.50;99.90
12957;DHT22;6543;48.836;10.092;2022-08-18T10:11:27;22.50;99.90
12957;DHT22;6543;48.836;10.092;2022-08-18T10:14:29;22.70;99.90
12957;DHT22;6543;48.836;10.092;2022-08-18T10:17:10;23.00;99.90
12957;DHT22;6543;48.836;10.092;2022-08-18T10:19:48;22.90;99.90
12957;DHT22;6543;48.836;10.092;2022-08-18T10:22:36;23.00;99.90
12957;DHT22;6543;48.836;10.092;2022-08-18T10:25:05;23.10;99.90
12957;DHT22;6543;48.836;10.092;2022-08-18T10:27:47;23.50;99.90
12957;DHT22;6543;48.836;10.092;2022-08-18T10:33:58;23.30;99.90
12957;DHT22;6543;48.836;10.092;2022-08-18T10:36:39;23.90;99.90
12957;DHT22;6543;48.836;10.092;2022-08-18T10:39:12;24.20;99.90
12957;DHT22;6543;48.836;10.092;2022-08-18T10:41:51;24.10;99.90
12957;DHT22;6543;48.836;10.092;2022-08-18T10:44:21;24.20;99.90
12957;DHT22;6543;48.836;10.092;2022-08-18T10:46:50;24.20;99.90
12957;DHT22;6543;48.836;10.092;2022-08-18T10:49:25;23.70;99.90
12957;DHT22;6543;48.836;10.092;2022-08-18T10:52:27;23.30;99.90
12957;DHT22;6543;48.836;10.092;2022-08-18T10:55:12;23.20;99.90
12957;DHT22;6543;48.836;10.092;2022-08-18T10:58:01;24.10;99.90
12957;DHT22;6543;48.836;10.092;2022-08-18T11:00:44;23.90;99.90
12957;DHT22;6543;48.836;10.092;2022-08-18T11:03:21;23.90;99.90
12957;DHT22;6543;48.836;10.092;2022-08-18T11:06:03;24.10;99.90
12957;DHT22;6543;48.836;10.092;2022-08-18T11:08:36;24.30;99.90
12957;DHT22;6543;48.836;10.092;2022-08-18T11:11:07;24.00;99.90
12957;DHT22;6543;48.836;10.092;2022-08-18T11:13:50;24.00;99.90
12957;DHT22;6543;48.836;10.092;2022-08-18T11:16:29;23.90;99.90
12957;DHT22;6543;48.836;10.092;2022-08-18T11:19:07;24.50;99.90
12957;DHT22;6543;48.836;10.092;2022-08-18T11:21:40;24.30;99.90
12957;DHT22;6543;48.836;10.092;2022-08-18T11:24:11;23.90;99.90
12957;DHT22;6543;48.836;10.092;2022-08-18T11:26:41;24.10;99.90
12957;DHT22;6543;48.836;10.092;2022-08-18T11:29:25;23.90;99.90
12957;DHT22;6543;48.836;10.092;2022-08-18T11:31:56;24.20;99.90
12957;DHT22;6543;48.836;10.092;2022-08-18T11:34:33;24.10;99.90
12957;DHT22;6543;48.836;10.092;2022-08-18T11:37:03;24.20;99.90
12957;DHT22;6543;48.836;10.092;2022-08-18T11:39:31;24.00;99.90
12957;DHT22;6543;48.836;10.092;2022-08-18T11:41:59;24.30;99.90
12957;DHT22;6543;48.836;10.092;2022-08-18T11:44:29;24.70;99.90
12957;DHT22;6543;48.836;10.092;2022-08-18T11:47:11;25.10;99.90
12957;DHT22;6543;48.836;10.092;2022-08-18T11:49:51;25.20;99.90
12957;DHT22;6543;48.836;10.092;2022-08-18T11:52:22;24.90;99.90
12957;DHT22;6543;48.836;10.092;2022-08-18T11:54:50;25.50;99.90
12957;DHT22;6543;48.836;10.092;2022-08-18T11:57:41;25.20;99.90
12957;DHT22;6543;48.836;10.092;2022-08-18T12:03:28;24.90;99.90
12957;DHT22;6543;48.836;10.092;2022-08-18T12:05:58;24.80;99.90
12957;DHT22;6543;48.836;10.092;2022-08-18T12:08:31;25.00;99.90
12957;DHT22;6543;48.836;10.092;2022-08-18T12:11:12;24.70;99.90
12957;DHT22;6543;48.836;10.092;2022-08-18T12:13:43;24.90;99.90
12957;DHT22;6543;48.836;10.092;2022-08-18T12:16:14;24.90;99.90
12957;DHT22;6543;48.836;10.092;2022-08-18T12:18:42;25.10;99.90
12957;DHT22;6543;48.836;10.092;2022-08-18T12:21:09;25.00;99.90
12957;DHT22;6543;48.836;10.092;2022-08-18T12:23:39;25.30;99.90
12957;DHT22;6543;48.836;10.092;2022-08-18T12:26:06;25.50;99.90
12957;DHT22;6543;48.836;10.092;2022-08-18T12:28:33;25.90;99.90
12957;DHT22;6543;48.836;10.092;2022-08-18T12:31:03;25.90;99.90
12957;DHT22;6543;48.836;10.092;2022-08-18T12:33:30;26.20;99.90
12957;DHT22;6543;48.836;10.092;2022-08-18T12:35:57;25.50;99.90
12957;DHT22;6543;48.836;10.092;2022-08-18T12:38:24;25.50;99.90
12957;DHT22;6543;48.836;10.092;2022-08-18T12:40:52;25.10;99.90
12957;DHT22;6543;48.836;10.092;2022-08-18T12:43:19;24.90;99.90
12957;DHT22;6543;48.836;10.092;2022-08-18T12:45:46;25.10;99.90
12957;DHT22;6543;48.836;10.092;2022-08-18T12:48:14;25.30;99.90
12957;DHT22;6543;48.836;10.092;2022-08-18T12:50:42;25.50;99.90
12957;DHT22;6543;48.836;10.092;2022-08-18T12:53:09;25.00;99.90
12957;DHT22;6543;48.836;10.092;2022-08-18T12:55:39;24.90;99.90
12957;DHT22;6543;48.836;10.092;2022-08-18T12:58:07;24.60;99.90
12957;DHT22;6543;48.836;10.092;2022-08-18T13:00:34;25.00;99.90
12957;DHT22;6543;48.836;10.092;2022-08-18T13:03:01;25.20;99.90
12957;DHT22;6543;48.836;10.092;2022-08-18T13:05:29;25.00;99.90
12957;DHT22;6543;48.836;10.092;2022-08-18T13:07:57;25.20;99.90
12957;DHT22;6543;48.836;10.092;2022-08-18T13:10:26;25.50;99.90
12957;DHT22;6543;48.836;10.092;2022-08-18T13:12:52;25.80;99.90
12957;DHT22;6543;48.836;10.092;2022-08-18T13:15:19;25.20;99.90
12957;DHT22;6543;48.836;10.092;2022-08-18T13:17:46;25.70;99.90
12957;DHT22;6543;48.836;10.092;2022-08-18T13:20:15;26.10;99.90
12957;DHT22;6543;48.836;10.092;2022-08-18T13:22:43;26.00;99.90
12957;DHT22;6543;48.836;10.092;2022-08-18T13:25:13;26.00;99.90
12957;DHT22;6543;48.836;10.092;2022-08-18T13:27:41;25.80;99.90
12957;DHT22;6543;48.836;10.092;2022-08-18T13:30:10;25.70;99.90
12957;DHT22;6543;48.836;10.092;2022-08-18T13:32:37;26.00;99.90
12957;DHT22;6543;48.836;10.092;2022-08-18T13:35:07;26.40;99.90
12957;DHT22;6543;48.836;10.092;2022-08-18T13:37:34;26.50;99.90
12957;DHT22;6543;48.836;10.092;2022-08-18T13:40:03;26.10;99.90
12957;DHT22;6543;48.836;10.092;2022-08-18T13:42:30;26.00;99.90
12957;DHT22;6543;48.836;10.092;2022-08-18T13:45:07;26.10;99.90
12957;DHT22;6543;48.836;10.092;2022-08-18T13:47:38;26.20;99.90
12957;DHT22;6543;48.836;10.092;2022-08-18T13:50:05;26.30;99.90
12957;DHT22;6543;48.836;10.092;2022-08-18T13:52:32;27.00;99.90
12957;DHT22;6543;48.836;10.092;2022-08-18T13:54:59;26.80;99.90
12957;DHT22;6543;48.836;10.092;2022-08-18T13:57:29;26.40;99.90
12957;DHT22;6543;48.836;10.092;2022-08-18T13:59:56;26.40;99.90
12957;DHT22;6543;48.836;10.092;2022-08-18T14:02:23;26.20;99.90
12957;DHT22;6543;48.836;10.092;2022-08-18T14:04:50;26.20;99.90
12957;DHT22;6543;48.836;10.092;2022-08-18T14:07:20;26.10;99.90
12957;DHT22;6543;48.836;10.092;2022-08-18T14:09:47;26.20;99.90
12957;DHT22;6543;48.836;10.092;2022-08-18T14:12:17;26.30;99.90
12957;DHT22;6543;48.836;10.092;2022-08-18T14:14:46;26.40;99.90
12957;DHT22;6543;48.836;10.092;2022-08-18T14:17:13;26.50;99.90
12957;DHT22;6543;48.836;10.092;2022-08-18T14:19:40;26.60;99.90
12957;DHT22;6543;48.836;10.092;2022-08-18T14:22:25;26.60;99.90
12957;DHT22;6543;48.836;10.092;2022-08-18T14:25:09;26.80;99.90
12957;DHT22;6543;48.836;10.092;2022-08-18T14:27:53;27.10;99.90
12957;DHT22;6543;48.836;10.092;2022-08-18T14:30:22;26.90;99.90
12957;DHT22;6543;48.836;10.092;2022-08-18T14:32:48;26.90;99.90
12957;DHT22;6543;48.836;10.092;2022-08-18T14:35:18;27.00;99.90
12957;DHT22;6543;48.836;10.092;2022-08-18T14:37:46;26.90;99.90
12957;DHT22;6543;48.836;10.092;2022-08-18T14:40:14;26.60;99.90
12957;DHT22;6543;48.836;10.092;2022-08-18T14:42:40;26.60;99.90
12957;DHT22;6543;48.836;10.092;2022-08-18T14:45:08;26.70;99.90
12957;DHT22;6543;48.836;10.092;2022-08-18T14:47:41;26.80;99.90
12957;DHT22;6543;48.836;10.092;2022-08-18T14:50:09;26.60;99.90
12957;DHT22;6543;48.836;10.092;2022-08-18T14:52:39;26.90;99.90
12957;DHT22;6543;48.836;10.092;2022-08-18T14:55:08;27.00;99.90
12957;DHT22;6543;48.836;10.092;2022-08-18T14:57:36;27.20;99.90
12957;DHT22;6543;48.836;10.092;2022-08-18T15:00:04;26.80;99.90
12957;DHT22;6543;48.836;10.092;2022-08-18T15:02:34;26.50;99.90
12957;DHT22;6543;48.836;10.092;2022-08-18T15:05:03;26.30;99.90
12957;DHT22;6543;48.836;10.092;2022-08-18T15:07:30;26.20;99.90
12957;DHT22;6543;48.836;10.092;2022-08-18T15:09:57;26.10;99.90
12957;DHT22;6543;48.836;10.092;2022-08-18T15:12:24;26.10;99.90
12957;DHT22;6543;48.836;10.092;2022-08-18T15:14:52;26.10;99.90
12957;DHT22;6543;48.836;10.092;2022-08-18T15:17:20;25.90;99.90
12957;DHT22;6543;48.836;10.092;2022-08-18T15:19:47;26.00;99.90
12957;DHT22;6543;48.836;10.092;2022-08-18T15:22:15;26.00;99.90
12957;DHT22;6543;48.836;10.092;2022-08-18T15:24:59;26.00;99.90
12957;DHT22;6543;48.836;10.092;2022-08-18T15:27:44;25.90;99.90
12957;DHT22;6543;48.836;10.092;2022-08-18T15:30:13;26.00;99.90
12957;DHT22;6543;48.836;10.092;2022-08-18T15:32:41;25.90;99.90
12957;DHT22;6543;48.836;10.092;2022-08-18T15:35:10;25.90;99.90
12957;DHT22;6543;48.836;10.092;2022-08-18T15:37:42;26.00;99.90
12957;DHT22;6543;48.836;10.092;2022-08-18T15:40:13;26.00;99.90
12957;DHT22;6543;48.836;10.092;2022-08-18T15:42:42;25.90;99.90
12957;DHT22;6543;48.836;10.092;2022-08-18T15:45:11;26.00;99.90
12957;DHT22;6543;48.836;10.092;2022-08-18T15:47:40;25.90;99.90
12957;DHT22;6543;48.836;10.092;2022-08-18T15:50:09;25.80;99.90
12957;DHT22;6543;48.836;10.092;2022-08-18T15:52:36;25.60;99.90
12957;DHT22;6543;48.836;10.092;2022-08-18T15:55:04;25.60;99.90
12957;DHT22;6543;48.836;10.092;2022-08-18T15:57:31;25.50;99.90
12957;DHT22;6543;48.836;10.092;2022-08-18T15:59:59;25.50;99.90
12957;DHT22;6543;48.836;10.092;2022-08-18T16:02:26;25.40;99.90
12957;DHT22;6543;48.836;10.092;2022-08-18T16:04:53;25.30;99.90
12957;DHT22;6543;48.836;10.092;2022-08-18T16:07:20;25.40;99.90
12957;DHT22;6543;48.836;10.092;2022-08-18T16:09:47;25.40;99.90
12957;DHT22;6543;48.836;10.092;2022-08-18T16:12:15;25.30;99.90
12957;DHT22;6543;48.836;10.092;2022-08-18T16:14:42;25.30;99.90
12957;DHT22;6543;48.836;10.092;2022-08-18T16:17:09;25.30;99.90
12957;DHT22;6543;48.836;10.092;2022-08-18T16:19:36;25.30;99.90